Airports Italy Naples International Airport

Naples International Airport (LIRN / NAP)

Facts about Naples International Airport

Name Naples International Airport
City Naples
Country Italy
ICAO code LIRN
IATA code NAP
Elevation 89.6112 meters (294 feet)

Weather

METAR

Metar data retrieved Sunday, 21 July 2024 at 20:25 UTC (14 minutes ago)

LIRN 211950Z 19003KT CAVOK 27/23 Q1010 NOSIG

Live traffic

Navigraph Charts (account required)